sensor_id;sensor_type;location;lat;lon;timestamp;pressure;altitude;pressure_sealevel;temperature;humidity
53262;BME280;39658;51.090;-1.786;2022-11-21T00:00:06;100236.03;;;2.63;100.00
53262;BME280;39658;51.090;-1.786;2022-11-21T00:02:32;100234.09;;;2.43;100.00
53262;BME280;39658;51.090;-1.786;2022-11-21T00:04:59;100234.09;;;2.43;100.00
53262;BME280;39658;51.090;-1.786;2022-11-21T00:07:26;100230.00;;;2.39;100.00
53262;BME280;39658;51.090;-1.786;2022-11-21T00:09:53;100234.94;;;2.55;100.00
53262;BME280;39658;51.090;-1.786;2022-11-21T00:12:20;100239.13;;;2.57;100.00
53262;BME280;39658;51.090;-1.786;2022-11-21T00:14:48;100236.50;;;2.57;100.00
53262;BME280;39658;51.090;-1.786;2022-11-21T00:17:14;100233.06;;;2.79;100.00
53262;BME280;39658;51.090;-1.786;2022-11-21T00:19:41;100227.81;;;2.79;100.00
53262;BME280;39658;51.090;-1.786;2022-11-21T00:22:08;100217.56;;;2.76;100.00
53262;BME280;39658;51.090;-1.786;2022-11-21T00:24:35;100226.66;;;2.83;100.00
53262;BME280;39658;51.090;-1.786;2022-11-21T00:27:01;100220.09;;;2.89;100.00
53262;BME280;39658;51.090;-1.786;2022-11-21T00:29:28;100209.81;;;2.86;100.00
53262;BME280;39658;51.090;-1.786;2022-11-21T00:31:56;100203.97;;;3.04;100.00
53262;BME280;39658;51.090;-1.786;2022-11-21T00:34:23;100195.38;;;3.02;100.00
53262;BME280;39658;51.090;-1.786;2022-11-21T00:36:50;100186.16;;;3.08;100.00
53262;BME280;39658;51.090;-1.786;2022-11-21T00:39:17;100182.09;;;3.15;100.00
53262;BME280;39658;51.090;-1.786;2022-11-21T00:41:44;100175.44;;;3.22;100.00
53262;BME280;39658;51.090;-1.786;2022-11-21T00:44:10;100165.63;;;3.13;100.00
53262;BME280;39658;51.090;-1.786;2022-11-21T00:46:37;100157.13;;;3.09;100.00
53262;BME280;39658;51.090;-1.786;2022-11-21T00:49:05;100154.50;;;3.09;100.00
53262;BME280;39658;51.090;-1.786;2022-11-21T00:51:32;100153.19;;;3.15;100.00
53262;BME280;39658;51.090;-1.786;2022-11-21T00:53:59;100149.47;;;3.18;100.00
53262;BME280;39658;51.090;-1.786;2022-11-21T00:56:25;100131.44;;;3.24;100.00
53262;BME280;39658;51.090;-1.786;2022-11-21T00:58:52;100130.00;;;3.31;100.00
53262;BME280;39658;51.090;-1.786;2022-11-21T01:01:19;100127.00;;;3.36;100.00
53262;BME280;39658;51.090;-1.786;2022-11-21T01:03:45;100126.63;;;3.40;100.00
53262;BME280;39658;51.090;-1.786;2022-11-21T01:06:14;100129.59;;;3.47;100.00
53262;BME280;39658;51.090;-1.786;2022-11-21T01:08:42;100128.72;;;3.58;100.00
53262;BME280;39658;51.090;-1.786;2022-11-21T01:11:11;100122.16;;;3.52;100.00
53262;BME280;39658;51.090;-1.786;2022-11-21T01:13:38;100123.72;;;3.55;100.00
53262;BME280;39658;51.090;-1.786;2022-11-21T01:16:07;100120.75;;;3.48;100.00
53262;BME280;39658;51.090;-1.786;2022-11-21T01:18:35;100108.94;;;3.42;100.00
53262;BME280;39658;51.090;-1.786;2022-11-21T01:21:02;100108.22;;;3.40;100.00
53262;BME280;39658;51.090;-1.786;2022-11-21T01:23:31;100100.81;;;3.34;100.00
53262;BME280;39658;51.090;-1.786;2022-11-21T01:26:02;100091.63;;;3.29;100.00
53262;BME280;39658;51.090;-1.786;2022-11-21T01:28:29;100089.50;;;3.23;100.00
53262;BME280;39658;51.090;-1.786;2022-11-21T01:31:02;100089.72;;;3.20;100.00
53262;BME280;39658;51.090;-1.786;2022-11-21T01:33:29;100080.91;;;3.09;100.00
53262;BME280;39658;51.090;-1.786;2022-11-21T01:35:56;100076.38;;;3.00;100.00
53262;BME280;39658;51.090;-1.786;2022-11-21T01:38:22;100083.44;;;3.00;100.00
53262;BME280;39658;51.090;-1.786;2022-11-21T01:40:51;100066.72;;;3.01;100.00
53262;BME280;39658;51.090;-1.786;2022-11-21T01:43:17;100067.22;;;2.95;100.00
53262;BME280;39658;51.090;-1.786;2022-11-21T01:45:53;100057.53;;;2.95;100.00
53262;BME280;39658;51.090;-1.786;2022-11-21T01:48:24;100059.56;;;2.92;100.00
53262;BME280;39658;51.090;-1.786;2022-11-21T01:50:54;100052.75;;;2.89;100.00
53262;BME280;39658;51.090;-1.786;2022-11-21T01:53:22;100052.41;;;2.82;100.00
53262;BME280;39658;51.090;-1.786;2022-11-21T01:55:50;100045.25;;;2.73;100.00
53262;BME280;39658;51.090;-1.786;2022-11-21T01:58:17;100040.25;;;2.59;100.00
53262;BME280;39658;51.090;-1.786;2022-11-21T02:00:46;100034.75;;;2.62;100.00
53262;BME280;39658;51.090;-1.786;2022-11-21T02:03:16;100036.19;;;2.55;100.00
53262;BME280;39658;51.090;-1.786;2022-11-21T02:05:46;100023.53;;;2.49;100.00
53262;BME280;39658;51.090;-1.786;2022-11-21T02:08:16;100019.22;;;2.37;100.00
53262;BME280;39658;51.090;-1.786;2022-11-21T02:10:49;100014.94;;;2.25;100.00
53262;BME280;39658;51.090;-1.786;2022-11-21T02:13:21;100007.06;;;2.13;100.00
53262;BME280;39658;51.090;-1.786;2022-11-21T02:15:48;100010.00;;;1.98;100.00
53262;BME280;39658;51.090;-1.786;2022-11-21T02:18:15;100004.63;;;1.88;100.00
53262;BME280;39658;51.090;-1.786;2022-11-21T02:20:45;100001.03;;;1.78;100.00
53262;BME280;39658;51.090;-1.786;2022-11-21T02:23:21;99997.72;;;1.76;100.00
53262;BME280;39658;51.090;-1.786;2022-11-21T02:25:52;99994.97;;;1.77;100.00
53262;BME280;39658;51.090;-1.786;2022-11-21T02:28:21;99985.06;;;1.81;100.00
53262;BME280;39658;51.090;-1.786;2022-11-21T02:30:49;99980.44;;;1.84;100.00
53262;BME280;39658;51.090;-1.786;2022-11-21T02:33:16;99973.16;;;1.77;100.00
53262;BME280;39658;51.090;-1.786;2022-11-21T02:35:43;99971.13;;;1.69;100.00
53262;BME280;39658;51.090;-1.786;2022-11-21T02:38:15;99960.16;;;1.75;100.00
53262;BME280;39658;51.090;-1.786;2022-11-21T02:40:49;99957.06;;;1.81;100.00
53262;BME280;39658;51.090;-1.786;2022-11-21T02:43:22;99948.84;;;1.86;100.00
53262;BME280;39658;51.090;-1.786;2022-11-21T02:45:50;99929.75;;;1.95;100.00
53262;BME280;39658;51.090;-1.786;2022-11-21T02:48:16;99916.53;;;2.08;100.00
53262;BME280;39658;51.090;-1.786;2022-11-21T02:50:44;99915.81;;;2.06;100.00
53262;BME280;39658;51.090;-1.786;2022-11-21T02:53:14;99915.78;;;1.95;100.00
53262;BME280;39658;51.090;-1.786;2022-11-21T02:55:42;99906.88;;;1.75;100.00
53262;BME280;39658;51.090;-1.786;2022-11-21T02:58:09;99898.63;;;1.79;100.00
53262;BME280;39658;51.090;-1.786;2022-11-21T03:00:39;99886.13;;;1.83;100.00
53262;BME280;39658;51.090;-1.786;2022-11-21T03:03:06;99876.69;;;1.80;100.00
53262;BME280;39658;51.090;-1.786;2022-11-21T03:05:33;99870.72;;;1.89;100.00
53262;BME280;39658;51.090;-1.786;2022-11-21T03:08:00;99864.66;;;1.89;100.00
53262;BME280;39658;51.090;-1.786;2022-11-21T03:10:27;99855.81;;;1.90;100.00
53262;BME280;39658;51.090;-1.786;2022-11-21T03:12:54;99856.91;;;1.87;100.00
53262;BME280;39658;51.090;-1.786;2022-11-21T03:15:25;99854.75;;;1.93;100.00
53262;BME280;39658;51.090;-1.786;2022-11-21T03:17:54;99853.19;;;1.90;100.00
53262;BME280;39658;51.090;-1.786;2022-11-21T03:20:21;99837.69;;;1.98;100.00
53262;BME280;39658;51.090;-1.786;2022-11-21T03:22:48;99828.97;;;2.09;100.00
53262;BME280;39658;51.090;-1.786;2022-11-21T03:25:15;99833.63;;;2.16;100.00
53262;BME280;39658;51.090;-1.786;2022-11-21T03:27:42;99826.06;;;2.23;100.00
53262;BME280;39658;51.090;-1.786;2022-11-21T03:30:10;99825.25;;;2.23;100.00
53262;BME280;39658;51.090;-1.786;2022-11-21T03:32:37;99819.75;;;2.26;100.00
53262;BME280;39658;51.090;-1.786;2022-11-21T03:35:06;99804.91;;;2.36;100.00
53262;BME280;39658;51.090;-1.786;2022-11-21T03:37:33;99783.06;;;2.35;100.00
53262;BME280;39658;51.090;-1.786;2022-11-21T03:40:00;99773.53;;;2.66;100.00
53262;BME280;39658;51.090;-1.786;2022-11-21T03:42:26;99769.50;;;2.83;100.00
53262;BME280;39658;51.090;-1.786;2022-11-21T03:44:53;99758.28;;;2.81;100.00
53262;BME280;39658;51.090;-1.786;2022-11-21T03:47:20;99750.63;;;2.78;100.00
53262;BME280;39658;51.090;-1.786;2022-11-21T03:49:47;99737.84;;;2.85;100.00
53262;BME280;39658;51.090;-1.786;2022-11-21T03:52:15;99728.53;;;3.01;100.00
53262;BME280;39658;51.090;-1.786;2022-11-21T03:54:42;99725.41;;;3.17;100.00
53262;BME280;39658;51.090;-1.786;2022-11-21T03:57:08;99716.81;;;3.15;100.00
53262;BME280;39658;51.090;-1.786;2022-11-21T03:59:35;99709.63;;;3.17;100.00
53262;BME280;39658;51.090;-1.786;2022-11-21T04:02:02;99703.28;;;3.20;100.00
53262;BME280;39658;51.090;-1.786;2022-11-21T04:04:28;99710.34;;;3.19;100.00
53262;BME280;39658;51.090;-1.786;2022-11-21T04:06:55;99693.50;;;3.22;100.00
53262;BME280;39658;51.090;-1.786;2022-11-21T04:09:23;99671.50;;;3.23;100.00
53262;BME280;39658;51.090;-1.786;2022-11-21T04:11:51;99672.69;;;3.19;100.00
53262;BME280;39658;51.090;-1.786;2022-11-21T04:14:17;99665.78;;;3.18;100.00
53262;BME280;39658;51.090;-1.786;2022-11-21T04:16:44;99661.13;;;3.21;100.00
53262;BME280;39658;51.090;-1.786;2022-11-21T04:19:11;99650.81;;;3.08;100.00
53262;BME280;39658;51.090;-1.786;2022-11-21T04:21:38;99643.63;;;3.10;100.00
53262;BME280;39658;51.090;-1.786;2022-11-21T04:24:05;99644.59;;;3.09;100.00
53262;BME280;39658;51.090;-1.786;2022-11-21T04:26:34;99650.25;;;3.05;100.00
53262;BME280;39658;51.090;-1.786;2022-11-21T04:29:00;99642.63;;;3.02;100.00
53262;BME280;39658;51.090;-1.786;2022-11-21T04:31:27;99638.22;;;3.02;100.00
53262;BME280;39658;51.090;-1.786;2022-11-21T04:33:54;99640.84;;;3.02;100.00
53262;BME280;39658;51.090;-1.786;2022-11-21T04:36:21;99623.97;;;3.05;100.00
53262;BME280;39658;51.090;-1.786;2022-11-21T04:38:47;99618.59;;;3.16;100.00
53262;BME280;39658;51.090;-1.786;2022-11-21T04:41:14;99605.91;;;3.21;100.00
53262;BME280;39658;51.090;-1.786;2022-11-21T04:43:42;99587.25;;;3.43;100.00
53262;BME280;39658;51.090;-1.786;2022-11-21T04:46:09;99580.09;;;3.74;100.00
53262;BME280;39658;51.090;-1.786;2022-11-21T04:48:36;99569.81;;;3.81;100.00
53262;BME280;39658;51.090;-1.786;2022-11-21T04:51:03;99553.88;;;4.02;100.00
53262;BME280;39658;51.090;-1.786;2022-11-21T04:53:29;99548.47;;;4.13;100.00
53262;BME280;39658;51.090;-1.786;2022-11-21T04:55:56;99528.56;;;4.38;100.00
53262;BME280;39658;51.090;-1.786;2022-11-21T04:58:24;99522.88;;;4.43;100.00
53262;BME280;39658;51.090;-1.786;2022-11-21T05:00:52;99514.19;;;4.60;100.00
53262;BME280;39658;51.090;-1.786;2022-11-21T05:03:19;99501.72;;;4.62;100.00
53262;BME280;39658;51.090;-1.786;2022-11-21T05:05:46;99500.59;;;4.64;100.00
53262;BME280;39658;51.090;-1.786;2022-11-21T05:08:13;99499.59;;;4.65;100.00
53262;BME280;39658;51.090;-1.786;2022-11-21T05:10:40;99492.28;;;4.87;100.00
53262;BME280;39658;51.090;-1.786;2022-11-21T05:13:25;99486.34;;;5.02;100.00
53262;BME280;39658;51.090;-1.786;2022-11-21T05:15:56;99476.47;;;5.04;100.00
53262;BME280;39658;51.090;-1.786;2022-11-21T05:18:23;99471.81;;;5.16;100.00
53262;BME280;39658;51.090;-1.786;2022-11-21T05:20:50;99469.88;;;5.36;100.00
53262;BME280;39658;51.090;-1.786;2022-11-21T05:23:17;99460.66;;;5.40;100.00
53262;BME280;39658;51.090;-1.786;2022-11-21T05:25:43;99456.59;;;5.46;100.00
53262;BME280;39658;51.090;-1.786;2022-11-21T05:28:10;99446.34;;;5.43;100.00
53262;BME280;39658;51.090;-1.786;2022-11-21T05:30:37;99440.75;;;5.46;100.00
53262;BME280;39658;51.090;-1.786;2022-11-21T05:33:05;99433.81;;;5.45;100.00
53262;BME280;39658;51.090;-1.786;2022-11-21T05:35:32;99434.81;;;5.44;100.00
53262;BME280;39658;51.090;-1.786;2022-11-21T05:37:58;99423.56;;;5.42;100.00
53262;BME280;39658;51.090;-1.786;2022-11-21T05:40:25;99408.78;;;5.49;100.00
53262;BME280;39658;51.090;-1.786;2022-11-21T05:42:52;99396.41;;;5.49;100.00
53262;BME280;39658;51.090;-1.786;2022-11-21T05:45:36;99381.22;;;5.43;100.00
53262;BME280;39658;51.090;-1.786;2022-11-21T05:48:05;99371.81;;;5.41;100.00
53262;BME280;39658;51.090;-1.786;2022-11-21T05:50:33;99365.03;;;5.38;100.00
53262;BME280;39658;51.090;-1.786;2022-11-21T05:53:01;99376.19;;;5.32;100.00
53262;BME280;39658;51.090;-1.786;2022-11-21T05:55:28;99359.91;;;5.37;100.00
53262;BME280;39658;51.090;-1.786;2022-11-21T05:57:57;99357.84;;;5.48;100.00
53262;BME280;39658;51.090;-1.786;2022-11-21T06:00:24;99345.16;;;5.52;100.00
53262;BME280;39658;51.090;-1.786;2022-11-21T06:02:51;99338.84;;;5.45;100.00
53262;BME280;39658;51.090;-1.786;2022-11-21T06:05:36;99354.22;;;5.49;100.00
53262;BME280;39658;51.090;-1.786;2022-11-21T06:08:03;99338.56;;;5.56;100.00
53262;BME280;39658;51.090;-1.786;2022-11-21T06:10:30;99316.75;;;5.72;100.00
53262;BME280;39658;51.090;-1.786;2022-11-21T06:12:58;99308.19;;;5.78;100.00
53262;BME280;39658;51.090;-1.786;2022-11-21T06:15:26;99291.19;;;5.72;100.00
53262;BME280;39658;51.090;-1.786;2022-11-21T06:17:52;99290.88;;;5.75;100.00
53262;BME280;39658;51.090;-1.786;2022-11-21T06:20:19;99283.03;;;5.91;100.00
53262;BME280;39658;51.090;-1.786;2022-11-21T06:22:47;99269.19;;;5.97;100.00
53262;BME280;39658;51.090;-1.786;2022-11-21T06:25:14;99269.16;;;5.89;100.00
53262;BME280;39658;51.090;-1.786;2022-11-21T06:27:41;99270.50;;;5.93;100.00
53262;BME280;39658;51.090;-1.786;2022-11-21T06:30:09;99252.22;;;6.08;100.00
53262;BME280;39658;51.090;-1.786;2022-11-21T06:32:36;99257.69;;;6.23;100.00
53262;BME280;39658;51.090;-1.786;2022-11-21T06:35:04;99246.97;;;6.33;100.00
53262;BME280;39658;51.090;-1.786;2022-11-21T06:37:30;99238.22;;;6.40;100.00
53262;BME280;39658;51.090;-1.786;2022-11-21T06:39:59;99226.03;;;6.47;100.00
53262;BME280;39658;51.090;-1.786;2022-11-21T06:42:26;99235.94;;;6.53;100.00
53262;BME280;39658;51.090;-1.786;2022-11-21T06:44:52;99232.63;;;6.51;100.00
53262;BME280;39658;51.090;-1.786;2022-11-21T06:47:19;99216.94;;;6.58;100.00
53262;BME280;39658;51.090;-1.786;2022-11-21T06:49:46;99214.31;;;6.58;100.00
53262;BME280;39658;51.090;-1.786;2022-11-21T06:52:13;99202.09;;;6.57;100.00
53262;BME280;39658;51.090;-1.786;2022-11-21T06:54:40;99189.69;;;6.66;100.00
53262;BME280;39658;51.090;-1.786;2022-11-21T06:57:08;99183.88;;;6.70;100.00
53262;BME280;39658;51.090;-1.786;2022-11-21T06:59:35;99159.28;;;6.70;100.00
53262;BME280;39658;51.090;-1.786;2022-11-21T07:02:01;99154.63;;;6.80;100.00
53262;BME280;39658;51.090;-1.786;2022-11-21T07:04:28;99158.44;;;6.85;100.00
53262;BME280;39658;51.090;-1.786;2022-11-21T07:06:55;99137.59;;;6.90;100.00
53262;BME280;39658;51.090;-1.786;2022-11-21T07:09:22;99133.13;;;6.91;100.00
53262;BME280;39658;51.090;-1.786;2022-11-21T07:11:48;99124.03;;;6.94;100.00
53262;BME280;39658;51.090;-1.786;2022-11-21T07:14:17;99120.88;;;6.98;100.00
53262;BME280;39658;51.090;-1.786;2022-11-21T07:16:43;99116.91;;;7.02;100.00
53262;BME280;39658;51.090;-1.786;2022-11-21T07:19:10;99102.31;;;7.06;100.00
53262;BME280;39658;51.090;-1.786;2022-11-21T07:21:37;99103.16;;;7.07;100.00
53262;BME280;39658;51.090;-1.786;2022-11-21T07:24:05;99090.44;;;7.02;100.00
53262;BME280;39658;51.090;-1.786;2022-11-21T07:26:31;99091.09;;;7.04;100.00
53262;BME280;39658;51.090;-1.786;2022-11-21T07:28:58;99074.06;;;7.07;100.00
53262;BME280;39658;51.090;-1.786;2022-11-21T07:31:26;99069.78;;;7.06;100.00
53262;BME280;39658;51.090;-1.786;2022-11-21T07:33:53;99069.94;;;7.04;100.00
53262;BME280;39658;51.090;-1.786;2022-11-21T07:36:20;99077.22;;;7.02;100.00
53262;BME280;39658;51.090;-1.786;2022-11-21T07:38:47;99068.78;;;7.07;100.00
53262;BME280;39658;51.090;-1.786;2022-11-21T07:41:14;99064.25;;;7.15;100.00
53262;BME280;39658;51.090;-1.786;2022-11-21T07:43:40;99059.97;;;7.14;100.00
53262;BME280;39658;51.090;-1.786;2022-11-21T07:46:07;99046.22;;;7.19;100.00
53262;BME280;39658;51.090;-1.786;2022-11-21T07:48:35;99037.81;;;7.15;100.00
53262;BME280;39658;51.090;-1.786;2022-11-21T07:51:04;99040.28;;;7.17;100.00
53262;BME280;39658;51.090;-1.786;2022-11-21T07:53:30;99040.78;;;7.20;100.00
53262;BME280;39658;51.090;-1.786;2022-11-21T07:55:58;99032.78;;;7.29;100.00
53262;BME280;39658;51.090;-1.786;2022-11-21T07:58:24;99023.84;;;7.30;100.00
53262;BME280;39658;51.090;-1.786;2022-11-21T08:00:51;99021.81;;;7.40;100.00
53262;BME280;39658;51.090;-1.786;2022-11-21T08:03:18;99028.38;;;7.44;100.00
53262;BME280;39658;51.090;-1.786;2022-11-21T08:05:47;99025.84;;;7.50;100.00
53262;BME280;39658;51.090;-1.786;2022-11-21T08:08:14;99008.25;;;7.58;100.00
53262;BME280;39658;51.090;-1.786;2022-11-21T08:10:42;98983.56;;;7.65;100.00
53262;BME280;39658;51.090;-1.786;2022-11-21T08:13:09;98973.09;;;7.72;100.00
53262;BME280;39658;51.090;-1.786;2022-11-21T08:15:36;98972.38;;;7.78;100.00
53262;BME280;39658;51.090;-1.786;2022-11-21T08:18:08;98956.47;;;7.78;100.00
53262;BME280;39658;51.090;-1.786;2022-11-21T08:20:35;98958.41;;;7.84;100.00
53262;BME280;39658;51.090;-1.786;2022-11-21T08:23:04;98959.50;;;7.90;100.00
53262;BME280;39658;51.090;-1.786;2022-11-21T08:25:31;98947.63;;;7.85;100.00
53262;BME280;39658;51.090;-1.786;2022-11-21T08:27:59;98931.56;;;7.87;100.00
53262;BME280;39658;51.090;-1.786;2022-11-21T08:30:27;98927.44;;;7.84;100.00
53262;BME280;39658;51.090;-1.786;2022-11-21T08:32:53;98909.75;;;7.85;100.00
53262;BME280;39658;51.090;-1.786;2022-11-21T08:35:20;98903.44;;;7.86;100.00
53262;BME280;39658;51.090;-1.786;2022-11-21T08:37:47;98895.94;;;7.90;100.00
53262;BME280;39658;51.090;-1.786;2022-11-21T08:40:15;98886.00;;;7.92;100.00
53262;BME280;39658;51.090;-1.786;2022-11-21T08:42:42;98886.63;;;7.94;100.00
53262;BME280;39658;51.090;-1.786;2022-11-21T08:45:09;98884.81;;;7.94;100.00
53262;BME280;39658;51.090;-1.786;2022-11-21T08:47:36;98872.66;;;8.00;100.00
53262;BME280;39658;51.090;-1.786;2022-11-21T08:50:03;98864.72;;;8.00;100.00
53262;BME280;39658;51.090;-1.786;2022-11-21T08:52:30;98863.44;;;7.96;100.00
53262;BME280;39658;51.090;-1.786;2022-11-21T08:54:57;98854.31;;;7.98;100.00
53262;BME280;39658;51.090;-1.786;2022-11-21T08:57:25;98855.06;;;8.07;100.00
53262;BME280;39658;51.090;-1.786;2022-11-21T08:59:52;98853.69;;;8.11;100.00
53262;BME280;39658;51.090;-1.786;2022-11-21T09:02:18;98849.19;;;8.11;100.00
53262;BME280;39658;51.090;-1.786;2022-11-21T09:04:45;98841.06;;;8.13;100.00
53262;BME280;39658;51.090;-1.786;2022-11-21T09:07:12;98828.25;;;8.16;100.00
53262;BME280;39658;51.090;-1.786;2022-11-21T09:09:39;98811.38;;;8.17;100.00
53262;BME280;39658;51.090;-1.786;2022-11-21T09:12:06;98793.63;;;8.18;100.00
53262;BME280;39658;51.090;-1.786;2022-11-21T09:14:34;98803.22;;;8.19;100.00
53262;BME280;39658;51.090;-1.786;2022-11-21T09:17:18;98789.41;;;8.24;100.00
53262;BME280;39658;51.090;-1.786;2022-11-21T09:20:17;98767.03;;;8.26;100.00
53262;BME280;39658;51.090;-1.786;2022-11-21T09:22:44;98750.50;;;8.24;100.00
53262;BME280;39658;51.090;-1.786;2022-11-21T09:25:10;98760.28;;;8.24;100.00
53262;BME280;39658;51.090;-1.786;2022-11-21T09:27:37;98742.47;;;8.17;100.00
53262;BME280;39658;51.090;-1.786;2022-11-21T09:30:06;98731.31;;;8.22;100.00
53262;BME280;39658;51.090;-1.786;2022-11-21T09:32:33;98719.91;;;8.22;100.00
53262;BME280;39658;51.090;-1.786;2022-11-21T09:35:01;98705.25;;;8.26;100.00
53262;BME280;39658;51.090;-1.786;2022-11-21T09:37:28;98701.78;;;8.25;100.00
53262;BME280;39658;51.090;-1.786;2022-11-21T09:39:54;98699.97;;;8.26;100.00
53262;BME280;39658;51.090;-1.786;2022-11-21T09:42:40;98681.59;;;8.24;100.00
53262;BME280;39658;51.090;-1.786;2022-11-21T09:45:18;98670.38;;;8.22;100.00
53262;BME280;39658;51.090;-1.786;2022-11-21T09:47:50;98665.91;;;8.23;100.00
53262;BME280;39658;51.090;-1.786;2022-11-21T09:50:24;98641.03;;;8.24;100.00
53262;BME280;39658;51.090;-1.786;2022-11-21T09:52:56;98641.03;;;8.24;100.00
53262;BME280;39658;51.090;-1.786;2022-11-21T09:55:38;98622.88;;;8.21;100.00
53262;BME280;39658;51.090;-1.786;2022-11-21T09:58:15;98613.91;;;8.22;100.00
53262;BME280;39658;51.090;-1.786;2022-11-21T10:00:49;98596.00;;;8.24;100.00
53262;BME280;39658;51.090;-1.786;2022-11-21T10:03:17;98577.84;;;8.21;100.00
53262;BME280;39658;51.090;-1.786;2022-11-21T10:05:48;98568.88;;;8.22;100.00
53262;BME280;39658;51.090;-1.786;2022-11-21T10:08:24;98553.41;;;8.25;100.00
53262;BME280;39658;51.090;-1.786;2022-11-21T10:10:54;98546.28;;;8.26;100.00
53262;BME280;39658;51.090;-1.786;2022-11-21T10:13:41;98540.38;;;8.24;100.00
53262;BME280;39658;51.090;-1.786;2022-11-21T10:16:18;98538.97;;;8.28;100.00
53262;BME280;39658;51.090;-1.786;2022-11-21T10:19:19;98528.44;;;8.34;100.00
53262;BME280;39658;51.090;-1.786;2022-11-21T10:22:01;98499.91;;;8.36;100.00
53262;BME280;39658;51.090;-1.786;2022-11-21T10:24:43;98490.94;;;8.37;100.00
53262;BME280;39658;51.090;-1.786;2022-11-21T10:27:17;98482.78;;;8.39;100.00
53262;BME280;39658;51.090;-1.786;2022-11-21T10:29:49;98472.84;;;8.41;100.00
53262;BME280;39658;51.090;-1.786;2022-11-21T10:32:23;98469.19;;;8.42;100.00
53262;BME280;39658;51.090;-1.786;2022-11-21T10:34:57;98464.50;;;8.44;100.00
53262;BME280;39658;51.090;-1.786;2022-11-21T10:37:31;98451.25;;;8.44;100.00
53262;BME280;39658;51.090;-1.786;2022-11-21T10:40:02;98437.59;;;8.47;100.00
53262;BME280;39658;51.090;-1.786;2022-11-21T10:42:35;98428.84;;;8.46;100.00
53262;BME280;39658;51.090;-1.786;2022-11-21T10:45:09;98398.66;;;8.47;100.00
53262;BME280;39658;51.090;-1.786;2022-11-21T10:47:47;98397.66;;;8.48;100.00
53262;BME280;39658;51.090;-1.786;2022-11-21T10:50:39;98378.28;;;8.48;100.00
53262;BME280;39658;51.090;-1.786;2022-11-21T10:53:14;98362.38;;;8.48;100.00
53262;BME280;39658;51.090;-1.786;2022-11-21T10:56:01;98337.94;;;8.53;100.00
53262;BME280;39658;51.090;-1.786;2022-11-21T10:58:40;98331.22;;;8.57;100.00
53262;BME280;39658;51.090;-1.786;2022-11-21T11:01:18;98307.75;;;8.60;100.00
53262;BME280;39658;51.090;-1.786;2022-11-21T11:03:47;98305.72;;;8.62;100.00
53262;BME280;39658;51.090;-1.786;2022-11-21T11:06:29;98285.94;;;8.71;100.00
53262;BME280;39658;51.090;-1.786;2022-11-21T11:08:56;98282.28;;;8.79;100.00
53262;BME280;39658;51.090;-1.786;2022-11-21T11:11:24;98271.50;;;8.81;100.00
53262;BME280;39658;51.090;-1.786;2022-11-21T11:13:56;98267.22;;;8.86;100.00
53262;BME280;39658;51.090;-1.786;2022-11-21T11:16:25;98257.44;;;8.87;100.00
53262;BME280;39658;51.090;-1.786;2022-11-21T11:18:57;98232.13;;;8.91;100.00
53262;BME280;39658;51.090;-1.786;2022-11-21T11:21:27;98225.59;;;8.93;100.00
53262;BME280;39658;51.090;-1.786;2022-11-21T11:24:06;98217.63;;;8.93;100.00
53262;BME280;39658;51.090;-1.786;2022-11-21T11:26:50;98201.09;;;8.98;100.00
53262;BME280;39658;51.090;-1.786;2022-11-21T11:29:19;98200.28;;;8.97;100.00
53262;BME280;39658;51.090;-1.786;2022-11-21T11:31:51;98199.47;;;8.97;100.00
53262;BME280;39658;51.090;-1.786;2022-11-21T11:34:21;98190.72;;;8.90;100.00
53262;BME280;39658;51.090;-1.786;2022-11-21T11:37:09;98187.06;;;8.84;100.00
53262;BME280;39658;51.090;-1.786;2022-11-21T11:39:45;98191.94;;;8.74;100.00
53262;BME280;39658;51.090;-1.786;2022-11-21T11:42:32;98178.69;;;8.67;100.00
53262;BME280;39658;51.090;-1.786;2022-11-21T11:45:31;98181.13;;;8.69;100.00
53262;BME280;39658;51.090;-1.786;2022-11-21T11:48:22;98144.44;;;8.59;100.00
53262;BME280;39658;51.090;-1.786;2022-11-21T11:50:54;98128.13;;;8.56;100.00
53262;BME280;39658;51.090;-1.786;2022-11-21T11:53:23;98122.00;;;8.55;100.00
53262;BME280;39658;51.090;-1.786;2022-11-21T11:55:53;98120.59;;;8.53;100.00
53262;BME280;39658;51.090;-1.786;2022-11-21T11:58:26;98086.13;;;8.53;100.00
53262;BME280;39658;51.090;-1.786;2022-11-21T12:00:59;98094.50;;;8.50;100.00
53262;BME280;39658;51.090;-1.786;2022-11-21T12:03:35;98093.69;;;8.42;100.00
53262;BME280;39658;51.090;-1.786;2022-11-21T12:06:11;98064.31;;;8.37;100.00
53262;BME280;39658;51.090;-1.786;2022-11-21T12:08:46;98053.91;;;8.29;100.00
53262;BME280;39658;51.090;-1.786;2022-11-21T12:11:25;98050.84;;;8.19;100.00
53262;BME280;39658;51.090;-1.786;2022-11-21T12:14:19;98048.63;;;8.16;100.00
53262;BME280;39658;51.090;-1.786;2022-11-21T12:17:05;98028.25;;;8.10;100.00
53262;BME280;39658;51.090;-1.786;2022-11-21T12:19:35;98037.22;;;8.09;100.00
53262;BME280;39658;51.090;-1.786;2022-11-21T12:22:04;98009.09;;;8.08;100.00
53262;BME280;39658;51.090;-1.786;2022-11-21T12:24:33;98013.38;;;8.09;100.00
53262;BME280;39658;51.090;-1.786;2022-11-21T12:27:06;97996.25;;;8.11;100.00
53262;BME280;39658;51.090;-1.786;2022-11-21T12:29:43;97985.66;;;8.11;100.00
53262;BME280;39658;51.090;-1.786;2022-11-21T12:32:25;97990.34;;;8.09;100.00
53262;BME280;39658;51.090;-1.786;2022-11-21T12:35:10;97979.38;;;8.06;100.00
53262;BME280;39658;51.090;-1.786;2022-11-21T12:37:48;97972.84;;;8.02;100.00
53262;BME280;39658;51.090;-1.786;2022-11-21T12:40:30;97956.97;;;8.02;100.00
53262;BME280;39658;51.090;-1.786;2022-11-21T12:43:16;97960.63;;;8.01;100.00
53262;BME280;39658;51.090;-1.786;2022-11-21T12:45:48;97940.03;;;7.96;100.00
53262;BME280;39658;51.090;-1.786;2022-11-21T12:48:18;97932.09;;;7.96;100.00
53262;BME280;39658;51.090;-1.786;2022-11-21T12:51:16;97886.47;;;7.94;100.00
53262;BME280;39658;51.090;-1.786;2022-11-21T12:54:24;97915.00;;;7.92;100.00
53262;BME280;39658;51.090;-1.786;2022-11-21T12:57:06;97902.16;;;7.89;100.00
53262;BME280;39658;51.090;-1.786;2022-11-21T12:59:44;97895.66;;;7.92;100.00
53262;BME280;39658;51.090;-1.786;2022-11-21T13:02:23;97862.44;;;7.96;100.00